createdAt,value
2016-03-27T15:34:40.467Z,49664
2016-03-27T15:35:39.954Z,51840
2016-03-27T15:36:40.315Z,49248
2016-03-27T15:37:40.084Z,31104
2016-03-27T15:38:39.806Z,12240
2016-03-27T15:39:40.339Z,6032
2016-03-27T15:40:40.358Z,5496
2016-03-27T15:41:40.236Z,8432
2016-03-27T15:42:38.956Z,10096
2016-03-27T15:43:39.787Z,13304
2016-03-27T15:44:39.821Z,21856
2016-03-27T15:45:40.418Z,17632
2016-03-27T15:46:39.686Z,12676
2016-03-27T15:47:39.814Z,19680
2016-03-27T15:48:39.661Z,13780
2016-03-27T15:49:39.585Z,6760
2016-03-27T15:50:39.650Z,7080
2016-03-27T15:51:39.855Z,4128
2016-03-27T15:52:38.671Z,3644
2016-03-27T15:53:39.814Z,3072
2016-03-27T15:54:39.630Z,2956
2016-03-27T15:55:39.929Z,2924
2016-03-27T15:56:54.494Z,2652
2016-03-27T15:57:43.185Z,2740
2016-03-27T15:58:40.734Z,9756
2016-03-27T15:59:42.080Z,16352
2016-03-27T16:01:07.802Z,9924
2016-03-27T16:01:41.071Z,17376
2016-03-27T16:02:42.338Z,29280
2016-03-27T16:03:41.669Z,4688
2016-03-27T16:04:41.797Z,3952
2016-03-27T16:05:39.800Z,3204
2016-03-27T16:06:43.459Z,2776
2016-03-27T16:07:39.226Z,2668
2016-03-27T16:08:39.277Z,2664
2016-03-27T16:09:39.795Z,2604
2016-03-27T16:10:39.156Z,2412
2016-03-27T16:11:39.206Z,2524
2016-03-27T16:12:39.537Z,2852
2016-03-27T16:13:39.306Z,9032
2016-03-27T16:14:52.949Z,10132
2016-03-27T16:15:39.373Z,9596
2016-03-27T16:16:39.236Z,12564
2016-03-27T16:17:39.300Z,10024
2016-03-27T16:18:39.475Z,7640
2016-03-27T16:19:39.072Z,7828
2016-03-27T16:20:42.591Z,7568
2016-03-27T16:22:38.971Z,5868
2016-03-27T16:23:38.927Z,5104
2016-03-27T16:24:39.272Z,3116
2016-03-27T16:25:52.932Z,2440
2016-03-27T16:26:40.388Z,2316
2016-03-27T16:27:39.952Z,2268
2016-03-27T16:28:39.018Z,5004
2016-03-27T16:29:38.880Z,5928
2016-03-27T16:30:39.038Z,2660
2016-03-27T16:31:38.698Z,3056
2016-03-27T16:32:39.216Z,4500
2016-03-27T16:33:39.250Z,4560
2016-03-27T16:34:38.815Z,3144
2016-03-27T16:35:39.411Z,3988
2016-03-27T16:36:38.867Z,3248
2016-03-27T16:37:38.699Z,3372
2016-03-27T16:38:39.076Z,5500
2016-03-27T16:39:40.798Z,7396
2016-03-27T16:40:52.925Z,9340
2016-03-27T16:41:39.678Z,10272
2016-03-27T16:42:38.650Z,9484
2016-03-27T16:43:39.120Z,7832
2016-03-27T16:44:38.858Z,11264
2016-03-27T16:45:53.111Z,9556
2016-03-27T16:46:39.081Z,9496
2016-03-27T16:47:41.256Z,9044
2016-03-27T16:48:38.619Z,9924
2016-03-27T16:49:39.590Z,15456
2016-03-27T16:50:44.514Z,13888
2016-03-27T16:51:42.439Z,13920
2016-03-27T16:52:53.286Z,10304
2016-03-27T16:53:41.069Z,7540
2016-03-27T16:54:53.119Z,3692
2016-03-27T16:56:40.405Z,1968
2016-03-27T16:57:53.143Z,1924
2016-03-27T16:58:39.692Z,1880
2016-03-27T16:59:40.586Z,1808
2016-03-27T17:00:38.416Z,1772
2016-03-27T17:01:38.137Z,1764
2016-03-27T17:02:38.313Z,1752
2016-03-27T17:03:38.456Z,1792
2016-03-27T17:04:52.896Z,1728
2016-03-27T17:05:38.383Z,1716
2016-03-27T17:06:37.604Z,1696
2016-03-27T17:07:38.638Z,1704
2016-03-27T17:08:38.610Z,1676
2016-03-27T17:09:38.504Z,1624
2016-03-27T17:10:38.037Z,1572
2016-03-27T17:11:38.056Z,1532
2016-03-27T17:12:37.901Z,1484
2016-03-27T17:13:37.904Z,1456
2016-03-27T17:14:37.939Z,1444
